Wright Patterson Air Force Base
KFFO : now visible

Airfield :











YOU CAN JOIN US ON...

 
LOGIN :

Register | Disclaimer

   EN    FR    IT 

 









Legend :    VFR   Marginal VFR   IFR   Intensive IFR   Very Intensive IFR
Visi :
Ceiling :
>= 8 km
>= 3000ft
5 to 8 km
1000 to 3000 ft
1500m to 5 km
500 to 1000 ft
800 to 1500m
200 to 500 ft
< 800m
< 200 ft
Symbols :   Thunderstorms  Fog  Heavy snow  Heavy precipitations  Wind > 20 kt






- Airport Elevation : 823 ft


KFFO - Wright Patterson Air Force Base

CURRENT METAR :
  • 092341Z 27017G28KT 7SM -RA BKN027 BKN039 OVC048 05/M01 A2976 RMK AO2A SLP084

EXPIRED METARs :
  • 092320Z COR 28023G31KT 7SM -RA BKN047 BKN060 OVC075 07/M03 A2976 RMK AO2A SLP083 COR 2323
  • 092256Z AUTO 28013G28KT 10SM FEW045 BKN060 BKN075 08/M05 A2974 RMK AO2 PK WND 27031/25 SLP076 T00781050
  • 092156Z AUTO 27018G31KT 10SM FEW085 09/M07 A2971 RMK AO2 PK WND 29038/01 SLP065 T00941069
  • 092056Z AUTO 29024G33KT 10SM BKN070 OVC090 10/M08 A2970 RMK AO2 PK WND 28035/13 SLP062 T00951081 55001

TAF AMD TAF KFFO
Valid from the 09 at 19:00 until the 11 at 01:00 UTC


091927Z 0919/1101 28020G30KT 9999 BKN065 OVC090 510003 QNH2969INS
TEMPO 0919/0923 28025G35KT 520003
BECMG 0923/0924 29015G25KT 9000 -SHRA BKN025 QNH2972INS
BECMG 1002/1003 31012G18KT 9999 NSW BKN035 QNH2977INS
BECMG 1005/1006 30012KT 9999 SCT035 BKN050 QNH2980INS
BECMG 1014/1015 31020G30KT 9999 BKN035 OVC050 510003 QNH2993INS TX11/1019Z TN00/1011Z



MET'MAP, your aeronautical weather chart ! - Copyright ORBIFLY December 2007 - Disclaimer

ORBIFLY MET'MAP TEAM :

Programming & Development : Alexandra Zaïnal
Concept & original design : Baudouin d'Aumeries
Assistance for programming : Marc-Olivier Méhu
Technical & hardware support : Manuel Goepfert

Contact : metmap@orbifly.com




SOURCES & CREDITS :

   NOAA       Earth
Advisory